sensor_id;sensor_type;location;lat;lon;timestamp;P1;durP1;ratioP1;P2;durP2;ratioP2
73900;SDS011;62235;52.160;7.526;2022-09-03T00:01:22;6.07;;;1.17;;
73900;SDS011;62235;52.160;7.526;2022-09-03T00:04:01;1.23;;;0.80;;
73900;SDS011;62235;52.160;7.526;2022-09-03T00:06:32;1.45;;;0.88;;
73900;SDS011;62235;52.160;7.526;2022-09-03T00:09:05;1.10;;;1.00;;
73900;SDS011;62235;52.160;7.526;2022-09-03T00:14:37;2.92;;;1.00;;
73900;SDS011;62235;52.160;7.526;2022-09-03T00:17:17;1.85;;;0.80;;
73900;SDS011;62235;52.160;7.526;2022-09-03T00:19:45;5.65;;;1.02;;
73900;SDS011;62235;52.160;7.526;2022-09-03T00:22:18;2.65;;;0.85;;
73900;SDS011;62235;52.160;7.526;2022-09-03T00:24:46;4.85;;;0.88;;
73900;SDS011;62235;52.160;7.526;2022-09-03T00:27:16;3.88;;;0.90;;
73900;SDS011;62235;52.160;7.526;2022-09-03T00:29:49;2.88;;;1.10;;
73900;SDS011;62235;52.160;7.526;2022-09-03T00:32:23;2.42;;;1.00;;
73900;SDS011;62235;52.160;7.526;2022-09-03T00:34:56;5.50;;;1.20;;
73900;SDS011;62235;52.160;7.526;2022-09-03T00:37:25;0.98;;;0.80;;
73900;SDS011;62235;52.160;7.526;2022-09-03T00:39:53;1.10;;;0.80;;
73900;SDS011;62235;52.160;7.526;2022-09-03T00:45:09;2.38;;;0.90;;
73900;SDS011;62235;52.160;7.526;2022-09-03T00:50:20;1.37;;;0.87;;
73900;SDS011;62235;52.160;7.526;2022-09-03T00:53:02;1.40;;;0.80;;
73900;SDS011;62235;52.160;7.526;2022-09-03T00:55:46;2.45;;;0.95;;
73900;SDS011;62235;52.160;7.526;2022-09-03T01:01:08;11.10;;;1.63;;
73900;SDS011;62235;52.160;7.526;2022-09-03T01:09:19;1.80;;;1.00;;
73900;SDS011;62235;52.160;7.526;2022-09-03T01:11:50;2.03;;;1.00;;
73900;SDS011;62235;52.160;7.526;2022-09-03T01:14:30;3.33;;;0.80;;
73900;SDS011;62235;52.160;7.526;2022-09-03T01:17:19;1.40;;;0.90;;
73900;SDS011;62235;52.160;7.526;2022-09-03T01:22:32;4.10;;;0.80;;
73900;SDS011;62235;52.160;7.526;2022-09-03T01:25:16;5.53;;;0.90;;
73900;SDS011;62235;52.160;7.526;2022-09-03T01:30:44;1.75;;;0.90;;
73900;SDS011;62235;52.160;7.526;2022-09-03T01:39:15;2.47;;;0.90;;
73900;SDS011;62235;52.160;7.526;2022-09-03T01:44:54;1.60;;;0.80;;
73900;SDS011;62235;52.160;7.526;2022-09-03T01:50:20;4.05;;;0.77;;
73900;SDS011;62235;52.160;7.526;2022-09-03T01:52:54;0.98;;;0.80;;
73900;SDS011;62235;52.160;7.526;2022-09-03T02:00:19;3.72;;;0.90;;
73900;SDS011;62235;52.160;7.526;2022-09-03T02:02:46;4.13;;;1.10;;
73900;SDS011;62235;52.160;7.526;2022-09-03T02:05:14;1.60;;;0.95;;
73900;SDS011;62235;52.160;7.526;2022-09-03T02:07:46;1.33;;;0.85;;
73900;SDS011;62235;52.160;7.526;2022-09-03T02:10:15;1.95;;;0.95;;
73900;SDS011;62235;52.160;7.526;2022-09-03T02:12:45;2.10;;;0.80;;
73900;SDS011;62235;52.160;7.526;2022-09-03T02:15:19;1.75;;;0.90;;
73900;SDS011;62235;52.160;7.526;2022-09-03T02:17:46;1.63;;;0.90;;
73900;SDS011;62235;52.160;7.526;2022-09-03T02:20:15;3.45;;;1.00;;
73900;SDS011;62235;52.160;7.526;2022-09-03T02:22:44;1.10;;;1.00;;
73900;SDS011;62235;52.160;7.526;2022-09-03T02:25:10;1.45;;;0.90;;
73900;SDS011;62235;52.160;7.526;2022-09-03T02:27:36;3.75;;;1.00;;
73900;SDS011;62235;52.160;7.526;2022-09-03T02:30:02;3.65;;;1.15;;
73900;SDS011;62235;52.160;7.526;2022-09-03T02:32:28;1.50;;;0.70;;
73900;SDS011;62235;52.160;7.526;2022-09-03T02:34:54;2.03;;;1.10;;
73900;SDS011;62235;52.160;7.526;2022-09-03T02:37:19;3.60;;;1.10;;
73900;SDS011;62235;52.160;7.526;2022-09-03T02:39:45;5.60;;;1.10;;
73900;SDS011;62235;52.160;7.526;2022-09-03T02:42:11;2.67;;;1.00;;
73900;SDS011;62235;52.160;7.526;2022-09-03T02:44:39;2.03;;;1.00;;
73900;SDS011;62235;52.160;7.526;2022-09-03T02:47:07;1.45;;;0.70;;
73900;SDS011;62235;52.160;7.526;2022-09-03T02:49:32;2.83;;;1.10;;
73900;SDS011;62235;52.160;7.526;2022-09-03T02:51:59;2.60;;;1.13;;
73900;SDS011;62235;52.160;7.526;2022-09-03T02:54:33;1.13;;;0.88;;
73900;SDS011;62235;52.160;7.526;2022-09-03T02:57:03;1.33;;;0.80;;
73900;SDS011;62235;52.160;7.526;2022-09-03T02:59:29;1.38;;;0.80;;
73900;SDS011;62235;52.160;7.526;2022-09-03T03:01:54;1.03;;;0.70;;
73900;SDS011;62235;52.160;7.526;2022-09-03T03:04:20;1.38;;;0.98;;
73900;SDS011;62235;52.160;7.526;2022-09-03T03:06:45;1.02;;;0.80;;
73900;SDS011;62235;52.160;7.526;2022-09-03T03:09:11;1.17;;;0.90;;
73900;SDS011;62235;52.160;7.526;2022-09-03T03:11:36;1.07;;;0.70;;
73900;SDS011;62235;52.160;7.526;2022-09-03T03:14:03;1.00;;;0.80;;
73900;SDS011;62235;52.160;7.526;2022-09-03T03:16:28;1.00;;;0.60;;
73900;SDS011;62235;52.160;7.526;2022-09-03T03:18:56;2.27;;;0.70;;
73900;SDS011;62235;52.160;7.526;2022-09-03T03:23:47;3.30;;;0.80;;
73900;SDS011;62235;52.160;7.526;2022-09-03T03:26:14;3.38;;;1.00;;
73900;SDS011;62235;52.160;7.526;2022-09-03T03:28:44;1.67;;;0.80;;
73900;SDS011;62235;52.160;7.526;2022-09-03T03:31:18;5.25;;;1.08;;
73900;SDS011;62235;52.160;7.526;2022-09-03T03:33:49;2.83;;;1.02;;
73900;SDS011;62235;52.160;7.526;2022-09-03T03:36:16;1.30;;;0.90;;
73900;SDS011;62235;52.160;7.526;2022-09-03T03:38:41;2.27;;;0.83;;
73900;SDS011;62235;52.160;7.526;2022-09-03T03:41:08;1.38;;;1.08;;
73900;SDS011;62235;52.160;7.526;2022-09-03T03:43:34;3.08;;;0.93;;
73900;SDS011;62235;52.160;7.526;2022-09-03T03:46:00;2.22;;;0.98;;
73900;SDS011;62235;52.160;7.526;2022-09-03T03:48:25;1.27;;;0.82;;
73900;SDS011;62235;52.160;7.526;2022-09-03T03:50:51;1.98;;;0.88;;
73900;SDS011;62235;52.160;7.526;2022-09-03T03:53:17;2.53;;;0.90;;
73900;SDS011;62235;52.160;7.526;2022-09-03T03:55:42;3.25;;;0.98;;
73900;SDS011;62235;52.160;7.526;2022-09-03T03:58:07;1.50;;;0.73;;
73900;SDS011;62235;52.160;7.526;2022-09-03T04:00:33;1.50;;;0.80;;
73900;SDS011;62235;52.160;7.526;2022-09-03T04:03:01;1.33;;;0.95;;
73900;SDS011;62235;52.160;7.526;2022-09-03T04:05:26;1.40;;;0.82;;
73900;SDS011;62235;52.160;7.526;2022-09-03T04:07:51;1.57;;;0.80;;
73900;SDS011;62235;52.160;7.526;2022-09-03T04:10:17;4.20;;;1.00;;
73900;SDS011;62235;52.160;7.526;2022-09-03T04:12:42;1.40;;;1.00;;
73900;SDS011;62235;52.160;7.526;2022-09-03T04:15:07;1.77;;;0.93;;
73900;SDS011;62235;52.160;7.526;2022-09-03T04:17:33;1.48;;;0.90;;
73900;SDS011;62235;52.160;7.526;2022-09-03T04:19:58;1.70;;;0.70;;
73900;SDS011;62235;52.160;7.526;2022-09-03T04:22:24;1.87;;;1.00;;
73900;SDS011;62235;52.160;7.526;2022-09-03T04:24:49;1.25;;;0.95;;
73900;SDS011;62235;52.160;7.526;2022-09-03T04:27:14;1.23;;;0.70;;
73900;SDS011;62235;52.160;7.526;2022-09-03T04:29:40;2.03;;;0.83;;
73900;SDS011;62235;52.160;7.526;2022-09-03T04:32:05;2.95;;;0.95;;
73900;SDS011;62235;52.160;7.526;2022-09-03T04:34:49;2.15;;;1.20;;
73900;SDS011;62235;52.160;7.526;2022-09-03T04:37:14;5.78;;;1.13;;
73900;SDS011;62235;52.160;7.526;2022-09-03T04:39:43;2.63;;;1.00;;
73900;SDS011;62235;52.160;7.526;2022-09-03T04:42:09;2.33;;;1.00;;
73900;SDS011;62235;52.160;7.526;2022-09-03T04:44:34;1.20;;;0.80;;
73900;SDS011;62235;52.160;7.526;2022-09-03T04:47:02;1.48;;;0.80;;
73900;SDS011;62235;52.160;7.526;2022-09-03T04:49:28;1.20;;;1.08;;
73900;SDS011;62235;52.160;7.526;2022-09-03T04:51:54;1.55;;;1.00;;
73900;SDS011;62235;52.160;7.526;2022-09-03T04:54:19;3.80;;;1.00;;
73900;SDS011;62235;52.160;7.526;2022-09-03T04:56:44;2.03;;;0.80;;
73900;SDS011;62235;52.160;7.526;2022-09-03T04:59:10;1.97;;;1.43;;
73900;SDS011;62235;52.160;7.526;2022-09-03T05:01:36;1.90;;;1.03;;
73900;SDS011;62235;52.160;7.526;2022-09-03T05:04:02;2.53;;;1.10;;
73900;SDS011;62235;52.160;7.526;2022-09-03T05:06:29;1.52;;;0.82;;
73900;SDS011;62235;52.160;7.526;2022-09-03T05:08:55;1.05;;;0.95;;
73900;SDS011;62235;52.160;7.526;2022-09-03T05:11:21;1.10;;;0.90;;
73900;SDS011;62235;52.160;7.526;2022-09-03T05:13:48;3.05;;;1.00;;
73900;SDS011;62235;52.160;7.526;2022-09-03T05:16:14;7.30;;;1.58;;
73900;SDS011;62235;52.160;7.526;2022-09-03T05:18:40;2.28;;;0.90;;
73900;SDS011;62235;52.160;7.526;2022-09-03T05:21:10;1.85;;;1.10;;
73900;SDS011;62235;52.160;7.526;2022-09-03T05:23:42;6.85;;;1.20;;
73900;SDS011;62235;52.160;7.526;2022-09-03T05:26:10;2.78;;;1.15;;
73900;SDS011;62235;52.160;7.526;2022-09-03T05:28:40;2.55;;;0.90;;
73900;SDS011;62235;52.160;7.526;2022-09-03T05:31:10;4.45;;;1.05;;
73900;SDS011;62235;52.160;7.526;2022-09-03T05:33:41;8.90;;;1.27;;
73900;SDS011;62235;52.160;7.526;2022-09-03T05:36:09;2.47;;;1.15;;
73900;SDS011;62235;52.160;7.526;2022-09-03T05:38:36;3.40;;;0.88;;
73900;SDS011;62235;52.160;7.526;2022-09-03T05:41:02;4.05;;;1.20;;
73900;SDS011;62235;52.160;7.526;2022-09-03T05:43:29;2.58;;;1.10;;
73900;SDS011;62235;52.160;7.526;2022-09-03T05:45:56;1.77;;;1.08;;
73900;SDS011;62235;52.160;7.526;2022-09-03T05:48:32;4.25;;;1.23;;
73900;SDS011;62235;52.160;7.526;2022-09-03T05:50:59;2.08;;;1.15;;
73900;SDS011;62235;52.160;7.526;2022-09-03T05:53:25;1.23;;;1.00;;
73900;SDS011;62235;52.160;7.526;2022-09-03T05:55:55;3.90;;;0.95;;
73900;SDS011;62235;52.160;7.526;2022-09-03T05:58:24;1.60;;;0.82;;
73900;SDS011;62235;52.160;7.526;2022-09-03T06:00:50;2.38;;;0.93;;
73900;SDS011;62235;52.160;7.526;2022-09-03T06:03:16;1.55;;;1.00;;
73900;SDS011;62235;52.160;7.526;2022-09-03T06:05:51;1.10;;;1.00;;
73900;SDS011;62235;52.160;7.526;2022-09-03T06:08:17;2.70;;;1.00;;
73900;SDS011;62235;52.160;7.526;2022-09-03T06:10:42;3.38;;;1.10;;
73900;SDS011;62235;52.160;7.526;2022-09-03T06:13:08;2.33;;;1.00;;
73900;SDS011;62235;52.160;7.526;2022-09-03T06:15:33;2.97;;;1.10;;
73900;SDS011;62235;52.160;7.526;2022-09-03T06:17:58;2.03;;;1.08;;
73900;SDS011;62235;52.160;7.526;2022-09-03T06:20:23;1.33;;;1.10;;
73900;SDS011;62235;52.160;7.526;2022-09-03T06:22:51;1.58;;;0.93;;
73900;SDS011;62235;52.160;7.526;2022-09-03T06:25:17;1.65;;;1.00;;
73900;SDS011;62235;52.160;7.526;2022-09-03T06:27:43;1.42;;;0.88;;
73900;SDS011;62235;52.160;7.526;2022-09-03T06:30:09;1.73;;;1.40;;
73900;SDS011;62235;52.160;7.526;2022-09-03T06:32:42;1.63;;;1.13;;
73900;SDS011;62235;52.160;7.526;2022-09-03T06:35:10;2.00;;;1.10;;
73900;SDS011;62235;52.160;7.526;2022-09-03T06:37:39;1.33;;;0.97;;
73900;SDS011;62235;52.160;7.526;2022-09-03T06:40:05;2.22;;;1.20;;
73900;SDS011;62235;52.160;7.526;2022-09-03T06:42:36;1.88;;;1.20;;
73900;SDS011;62235;52.160;7.526;2022-09-03T06:45:02;1.95;;;1.10;;
73900;SDS011;62235;52.160;7.526;2022-09-03T06:47:27;4.38;;;1.30;;
73900;SDS011;62235;52.160;7.526;2022-09-03T06:49:52;2.00;;;1.10;;
73900;SDS011;62235;52.160;7.526;2022-09-03T06:52:18;3.63;;;1.00;;
73900;SDS011;62235;52.160;7.526;2022-09-03T06:54:43;2.83;;;1.33;;
73900;SDS011;62235;52.160;7.526;2022-09-03T06:57:08;2.63;;;1.17;;
73900;SDS011;62235;52.160;7.526;2022-09-03T06:59:34;1.67;;;1.10;;
73900;SDS011;62235;52.160;7.526;2022-09-03T07:01:59;2.20;;;1.30;;
73900;SDS011;62235;52.160;7.526;2022-09-03T07:04:26;2.47;;;1.02;;
73900;SDS011;62235;52.160;7.526;2022-09-03T07:06:52;2.07;;;1.10;;
73900;SDS011;62235;52.160;7.526;2022-09-03T07:09:17;2.63;;;1.15;;
73900;SDS011;62235;52.160;7.526;2022-09-03T07:11:43;1.92;;;1.20;;
73900;SDS011;62235;52.160;7.526;2022-09-03T07:16:36;2.43;;;1.10;;
73900;SDS011;62235;52.160;7.526;2022-09-03T07:19:02;1.20;;;0.90;;
73900;SDS011;62235;52.160;7.526;2022-09-03T07:21:29;1.13;;;0.98;;
73900;SDS011;62235;52.160;7.526;2022-09-03T07:23:57;1.98;;;1.00;;
73900;SDS011;62235;52.160;7.526;2022-09-03T07:26:24;2.40;;;1.13;;
73900;SDS011;62235;52.160;7.526;2022-09-03T07:28:51;1.88;;;1.20;;
73900;SDS011;62235;52.160;7.526;2022-09-03T07:31:40;2.80;;;1.00;;
73900;SDS011;62235;52.160;7.526;2022-09-03T07:34:05;3.22;;;1.10;;
73900;SDS011;62235;52.160;7.526;2022-09-03T07:36:36;3.88;;;1.10;;
73900;SDS011;62235;52.160;7.526;2022-09-03T07:39:08;3.38;;;1.02;;
73900;SDS011;62235;52.160;7.526;2022-09-03T07:41:35;3.17;;;1.10;;
73900;SDS011;62235;52.160;7.526;2022-09-03T07:44:01;1.35;;;0.95;;
73900;SDS011;62235;52.160;7.526;2022-09-03T07:46:29;5.95;;;0.98;;
73900;SDS011;62235;52.160;7.526;2022-09-03T07:48:57;2.53;;;1.30;;
73900;SDS011;62235;52.160;7.526;2022-09-03T07:51:26;4.30;;;1.08;;
73900;SDS011;62235;52.160;7.526;2022-09-03T07:53:54;4.25;;;1.17;;
73900;SDS011;62235;52.160;7.526;2022-09-03T07:56:21;1.85;;;1.10;;
73900;SDS011;62235;52.160;7.526;2022-09-03T07:58:47;1.13;;;0.98;;
73900;SDS011;62235;52.160;7.526;2022-09-03T08:01:13;1.42;;;0.70;;
73900;SDS011;62235;52.160;7.526;2022-09-03T08:03:42;3.35;;;1.10;;
73900;SDS011;62235;52.160;7.526;2022-09-03T08:06:08;2.42;;;0.90;;
73900;SDS011;62235;52.160;7.526;2022-09-03T08:08:34;3.45;;;1.15;;
73900;SDS011;62235;52.160;7.526;2022-09-03T08:11:08;3.17;;;0.95;;
73900;SDS011;62235;52.160;7.526;2022-09-03T08:16:10;2.47;;;1.10;;
73900;SDS011;62235;52.160;7.526;2022-09-03T08:18:37;3.97;;;1.20;;
73900;SDS011;62235;52.160;7.526;2022-09-03T08:21:07;4.75;;;1.10;;
73900;SDS011;62235;52.160;7.526;2022-09-03T08:23:39;2.30;;;1.00;;
73900;SDS011;62235;52.160;7.526;2022-09-03T08:26:05;1.38;;;0.80;;
73900;SDS011;62235;52.160;7.526;2022-09-03T08:28:31;3.08;;;1.00;;
73900;SDS011;62235;52.160;7.526;2022-09-03T08:31:03;1.60;;;0.95;;
73900;SDS011;62235;52.160;7.526;2022-09-03T08:33:39;2.25;;;1.00;;
73900;SDS011;62235;52.160;7.526;2022-09-03T08:38:43;1.52;;;1.00;;
73900;SDS011;62235;52.160;7.526;2022-09-03T08:43:54;5.95;;;1.02;;
73900;SDS011;62235;52.160;7.526;2022-09-03T08:49:17;3.35;;;1.10;;
73900;SDS011;62235;52.160;7.526;2022-09-03T08:51:50;4.13;;;1.00;;
73900;SDS011;62235;52.160;7.526;2022-09-03T08:54:17;1.75;;;1.00;;
73900;SDS011;62235;52.160;7.526;2022-09-03T08:56:43;2.63;;;0.85;;
73900;SDS011;62235;52.160;7.526;2022-09-03T08:59:10;2.25;;;0.95;;
73900;SDS011;62235;52.160;7.526;2022-09-03T09:07:36;2.42;;;0.98;;
73900;SDS011;62235;52.160;7.526;2022-09-03T09:10:13;3.72;;;1.10;;
73900;SDS011;62235;52.160;7.526;2022-09-03T09:15:47;2.60;;;1.15;;
73900;SDS011;62235;52.160;7.526;2022-09-03T09:18:31;3.40;;;1.05;;
73900;SDS011;62235;52.160;7.526;2022-09-03T09:21:08;2.13;;;0.93;;
73900;SDS011;62235;52.160;7.526;2022-09-03T09:23:39;3.97;;;1.27;;
73900;SDS011;62235;52.160;7.526;2022-09-03T09:26:09;3.35;;;1.10;;
73900;SDS011;62235;52.160;7.526;2022-09-03T09:28:38;3.95;;;1.45;;
73900;SDS011;62235;52.160;7.526;2022-09-03T09:31:04;1.95;;;0.82;;
73900;SDS011;62235;52.160;7.526;2022-09-03T09:33:31;1.08;;;0.88;;
73900;SDS011;62235;52.160;7.526;2022-09-03T09:35:58;5.22;;;1.00;;
73900;SDS011;62235;52.160;7.526;2022-09-03T09:38:29;3.03;;;1.00;;
73900;SDS011;62235;52.160;7.526;2022-09-03T09:40:56;1.33;;;0.82;;
73900;SDS011;62235;52.160;7.526;2022-09-03T09:43:32;3.25;;;1.75;;
73900;SDS011;62235;52.160;7.526;2022-09-03T09:46:04;1.30;;;0.90;;
73900;SDS011;62235;52.160;7.526;2022-09-03T09:48:53;2.45;;;1.20;;
73900;SDS011;62235;52.160;7.526;2022-09-03T09:51:23;2.28;;;0.95;;
73900;SDS011;62235;52.160;7.526;2022-09-03T09:53:59;3.45;;;1.10;;
73900;SDS011;62235;52.160;7.526;2022-09-03T09:56:34;5.18;;;1.23;;
73900;SDS011;62235;52.160;7.526;2022-09-03T09:59:01;3.10;;;0.90;;
73900;SDS011;62235;52.160;7.526;2022-09-03T10:01:27;1.27;;;0.90;;
73900;SDS011;62235;52.160;7.526;2022-09-03T10:03:55;1.02;;;0.75;;
73900;SDS011;62235;52.160;7.526;2022-09-03T10:06:22;3.45;;;0.93;;
73900;SDS011;62235;52.160;7.526;2022-09-03T10:09:16;4.45;;;0.95;;
73900;SDS011;62235;52.160;7.526;2022-09-03T10:11:47;1.27;;;0.70;;
73900;SDS011;62235;52.160;7.526;2022-09-03T10:14:28;1.52;;;0.90;;
73900;SDS011;62235;52.160;7.526;2022-09-03T10:17:51;2.10;;;1.17;;
73900;SDS011;62235;52.160;7.526;2022-09-03T10:20:14;3.35;;;0.95;;
73900;SDS011;62235;52.160;7.526;2022-09-03T10:28:26;2.10;;;1.00;;
73900;SDS011;62235;52.160;7.526;2022-09-03T10:31:00;3.28;;;1.20;;
73900;SDS011;62235;52.160;7.526;2022-09-03T10:33:46;1.92;;;1.08;;
73900;SDS011;62235;52.160;7.526;2022-09-03T10:36:27;3.88;;;1.20;;
73900;SDS011;62235;52.160;7.526;2022-09-03T10:41:56;3.90;;;1.00;;
73900;SDS011;62235;52.160;7.526;2022-09-03T10:49:35;4.20;;;0.95;;
73900;SDS011;62235;52.160;7.526;2022-09-03T10:52:06;6.80;;;1.20;;
73900;SDS011;62235;52.160;7.526;2022-09-03T10:54:47;2.80;;;1.05;;
73900;SDS011;62235;52.160;7.526;2022-09-03T10:57:28;1.92;;;1.10;;
73900;SDS011;62235;52.160;7.526;2022-09-03T11:00:06;3.47;;;1.80;;
73900;SDS011;62235;52.160;7.526;2022-09-03T11:07:56;2.58;;;1.13;;
73900;SDS011;62235;52.160;7.526;2022-09-03T11:10:32;4.05;;;1.10;;
73900;SDS011;62235;52.160;7.526;2022-09-03T11:13:12;1.75;;;0.93;;
73900;SDS011;62235;52.160;7.526;2022-09-03T11:15:50;1.88;;;0.85;;
73900;SDS011;62235;52.160;7.526;2022-09-03T11:18:24;2.33;;;1.00;;
73900;SDS011;62235;52.160;7.526;2022-09-03T11:20:54;1.98;;;0.90;;
73900;SDS011;62235;52.160;7.526;2022-09-03T11:23:24;1.85;;;0.93;;
73900;SDS011;62235;52.160;7.526;2022-09-03T11:25:52;1.67;;;0.93;;
73900;SDS011;62235;52.160;7.526;2022-09-03T11:28:22;2.60;;;0.77;;
73900;SDS011;62235;52.160;7.526;2022-09-03T11:31:09;6.63;;;1.02;;
73900;SDS011;62235;52.160;7.526;2022-09-03T11:33:57;5.55;;;1.10;;
73900;SDS011;62235;52.160;7.526;2022-09-03T11:36:33;1.88;;;1.00;;
73900;SDS011;62235;52.160;7.526;2022-09-03T11:39:00;2.10;;;1.15;;
73900;SDS011;62235;52.160;7.526;2022-09-03T11:41:37;2.53;;;0.95;;
73900;SDS011;62235;52.160;7.526;2022-09-03T11:44:18;2.08;;;0.93;;
73900;SDS011;62235;52.160;7.526;2022-09-03T11:46:56;2.22;;;1.25;;
73900;SDS011;62235;52.160;7.526;2022-09-03T11:49:29;2.60;;;1.10;;
73900;SDS011;62235;52.160;7.526;2022-09-03T11:51:57;7.88;;;1.20;;
73900;SDS011;62235;52.160;7.526;2022-09-03T11:57:12;4.80;;;2.58;;
73900;SDS011;62235;52.160;7.526;2022-09-03T11:59:40;3.60;;;1.10;;
73900;SDS011;62235;52.160;7.526;2022-09-03T12:02:12;1.25;;;0.93;;
73900;SDS011;62235;52.160;7.526;2022-09-03T12:05:32;2.88;;;0.93;;
73900;SDS011;62235;52.160;7.526;2022-09-03T12:08:37;2.10;;;1.00;;
73900;SDS011;62235;52.160;7.526;2022-09-03T12:11:02;2.17;;;0.80;;
73900;SDS011;62235;52.160;7.526;2022-09-03T12:19:00;4.10;;;1.00;;
73900;SDS011;62235;52.160;7.526;2022-09-03T12:21:35;1.55;;;1.08;;
73900;SDS011;62235;52.160;7.526;2022-09-03T12:24:02;3.10;;;0.95;;
73900;SDS011;62235;52.160;7.526;2022-09-03T12:26:27;2.45;;;1.00;;
73900;SDS011;62235;52.160;7.526;2022-09-03T12:28:56;2.97;;;1.92;;
73900;SDS011;62235;52.160;7.526;2022-09-03T12:31:23;3.75;;;1.10;;
73900;SDS011;62235;52.160;7.526;2022-09-03T12:33:50;4.85;;;0.98;;
73900;SDS011;62235;52.160;7.526;2022-09-03T12:38:48;4.90;;;1.30;;
73900;SDS011;62235;52.160;7.526;2022-09-03T12:41:25;3.28;;;1.30;;
73900;SDS011;62235;52.160;7.526;2022-09-03T12:43:56;2.38;;;1.05;;
73900;SDS011;62235;52.160;7.526;2022-09-03T12:46:29;3.85;;;0.90;;
73900;SDS011;62235;52.160;7.526;2022-09-03T12:48:56;2.22;;;1.20;;
73900;SDS011;62235;52.160;7.526;2022-09-03T12:51:39;3.97;;;1.10;;
73900;SDS011;62235;52.160;7.526;2022-09-03T12:54:06;1.75;;;0.90;;
73900;SDS011;62235;52.160;7.526;2022-09-03T12:56:33;3.33;;;1.10;;
73900;SDS011;62235;52.160;7.526;2022-09-03T12:59:01;1.73;;;1.10;;
73900;SDS011;62235;52.160;7.526;2022-09-03T13:01:34;9.70;;;1.45;;
73900;SDS011;62235;52.160;7.526;2022-09-03T13:07:19;2.38;;;0.95;;
73900;SDS011;62235;52.160;7.526;2022-09-03T13:09:27;1.58;;;1.20;;
73900;SDS011;62235;52.160;7.526;2022-09-03T13:11:54;2.63;;;1.30;;
73900;SDS011;62235;52.160;7.526;2022-09-03T13:14:20;5.38;;;1.45;;
73900;SDS011;62235;52.160;7.526;2022-09-03T13:16:49;2.65;;;1.33;;
73900;SDS011;62235;52.160;7.526;2022-09-03T13:25:07;6.03;;;1.20;;
73900;SDS011;62235;52.160;7.526;2022-09-03T13:32:52;2.25;;;1.15;;
73900;SDS011;62235;52.160;7.526;2022-09-03T13:35:36;3.90;;;1.30;;
73900;SDS011;62235;52.160;7.526;2022-09-03T13:40:43;2.78;;;1.25;;
73900;SDS011;62235;52.160;7.526;2022-09-03T13:45:49;2.80;;;1.10;;
73900;SDS011;62235;52.160;7.526;2022-09-03T13:48:19;2.00;;;1.30;;
73900;SDS011;62235;52.160;7.526;2022-09-03T13:51:10;4.32;;;1.10;;
73900;SDS011;62235;52.160;7.526;2022-09-03T13:53:48;1.13;;;1.00;;
73900;SDS011;62235;52.160;7.526;2022-09-03T13:56:35;2.65;;;0.98;;
73900;SDS011;62235;52.160;7.526;2022-09-03T13:59:16;1.92;;;1.10;;
73900;SDS011;62235;52.160;7.526;2022-09-03T14:05:06;9.32;;;1.33;;
73900;SDS011;62235;52.160;7.526;2022-09-03T14:10:14;2.97;;;1.40;;
73900;SDS011;62235;52.160;7.526;2022-09-03T14:13:01;9.43;;;1.40;;
73900;SDS011;62235;52.160;7.526;2022-09-03T14:15:36;12.45;;;1.58;;
73900;SDS011;62235;52.160;7.526;2022-09-03T14:18:09;2.55;;;1.20;;
73900;SDS011;62235;52.160;7.526;2022-09-03T14:20:45;3.92;;;1.10;;
73900;SDS011;62235;52.160;7.526;2022-09-03T14:25:55;8.23;;;1.27;;
73900;SDS011;62235;52.160;7.526;2022-09-03T14:36:37;2.78;;;0.93;;
73900;SDS011;62235;52.160;7.526;2022-09-03T14:50:10;2.67;;;1.02;;
73900;SDS011;62235;52.160;7.526;2022-09-03T15:01:34;8.70;;;1.30;;
73900;SDS011;62235;52.160;7.526;2022-09-03T15:04:19;8.15;;;1.50;;
73900;SDS011;62235;52.160;7.526;2022-09-03T15:09:45;11.80;;;1.33;;
73900;SDS011;62235;52.160;7.526;2022-09-03T15:12:18;9.05;;;1.60;;
73900;SDS011;62235;52.160;7.526;2022-09-03T15:14:51;6.32;;;1.23;;
73900;SDS011;62235;52.160;7.526;2022-09-03T15:17:21;11.52;;;1.48;;
73900;SDS011;62235;52.160;7.526;2022-09-03T15:19:55;13.27;;;1.50;;
73900;SDS011;62235;52.160;7.526;2022-09-03T15:31:31;3.13;;;1.25;;
73900;SDS011;62235;52.160;7.526;2022-09-03T15:33:58;6.43;;;1.30;;
73900;SDS011;62235;52.160;7.526;2022-09-03T15:36:38;11.55;;;1.23;;
73900;SDS011;62235;52.160;7.526;2022-09-03T15:39:05;12.93;;;1.65;;
73900;SDS011;62235;52.160;7.526;2022-09-03T15:41:39;7.97;;;1.33;;
73900;SDS011;62235;52.160;7.526;2022-09-03T15:44:15;5.40;;;1.33;;
73900;SDS011;62235;52.160;7.526;2022-09-03T15:49:53;3.22;;;1.20;;
73900;SDS011;62235;52.160;7.526;2022-09-03T15:52:29;7.20;;;1.67;;
73900;SDS011;62235;52.160;7.526;2022-09-03T16:00:19;13.20;;;2.35;;
73900;SDS011;62235;52.160;7.526;2022-09-03T16:02:47;5.88;;;1.75;;
73900;SDS011;62235;52.160;7.526;2022-09-03T16:05:19;5.80;;;1.73;;
73900;SDS011;62235;52.160;7.526;2022-09-03T16:11:28;4.72;;;1.80;;
73900;SDS011;62235;52.160;7.526;2022-09-03T16:16:53;10.30;;;2.00;;
73900;SDS011;62235;52.160;7.526;2022-09-03T16:27:36;10.38;;;1.35;;
73900;SDS011;62235;52.160;7.526;2022-09-03T16:38:15;2.55;;;1.30;;
73900;SDS011;62235;52.160;7.526;2022-09-03T16:43:23;2.92;;;1.75;;
73900;SDS011;62235;52.160;7.526;2022-09-03T16:49:45;2.92;;;1.20;;
73900;SDS011;62235;52.160;7.526;2022-09-03T17:00:19;3.90;;;2.00;;
73900;SDS011;62235;52.160;7.526;2022-09-03T17:08:23;3.05;;;1.67;;
73900;SDS011;62235;52.160;7.526;2022-09-03T17:25:18;2.50;;;1.30;;
73900;SDS011;62235;52.160;7.526;2022-09-03T17:27:53;4.85;;;2.05;;
73900;SDS011;62235;52.160;7.526;2022-09-03T17:36:10;4.10;;;1.60;;
73900;SDS011;62235;52.160;7.526;2022-09-03T17:41:51;7.55;;;1.40;;
73900;SDS011;62235;52.160;7.526;2022-09-03T17:49:33;2.83;;;1.33;;
73900;SDS011;62235;52.160;7.526;2022-09-03T17:52:24;1.75;;;1.25;;
73900;SDS011;62235;52.160;7.526;2022-09-03T17:54:55;3.08;;;1.35;;
73900;SDS011;62235;52.160;7.526;2022-09-03T17:57:28;2.70;;;1.40;;
73900;SDS011;62235;52.160;7.526;2022-09-03T18:00:00;2.45;;;1.40;;
73900;SDS011;62235;52.160;7.526;2022-09-03T18:02:41;3.58;;;1.23;;
73900;SDS011;62235;52.160;7.526;2022-09-03T18:16:13;8.07;;;1.83;;
73900;SDS011;62235;52.160;7.526;2022-09-03T18:18:43;4.55;;;1.80;;
73900;SDS011;62235;52.160;7.526;2022-09-03T18:21:12;9.00;;;1.90;;
73900;SDS011;62235;52.160;7.526;2022-09-03T18:24:19;2.75;;;1.92;;
73900;SDS011;62235;52.160;7.526;2022-09-03T18:27:12;3.85;;;1.58;;
73900;SDS011;62235;52.160;7.526;2022-09-03T18:30:08;4.18;;;1.90;;
73900;SDS011;62235;52.160;7.526;2022-09-03T18:32:53;3.05;;;1.75;;
73900;SDS011;62235;52.160;7.526;2022-09-03T18:35:37;2.97;;;1.60;;
73900;SDS011;62235;52.160;7.526;2022-09-03T18:38:26;2.30;;;1.50;;
73900;SDS011;62235;52.160;7.526;2022-09-03T18:44:17;1.95;;;1.35;;
73900;SDS011;62235;52.160;7.526;2022-09-03T18:50:34;2.30;;;1.30;;
73900;SDS011;62235;52.160;7.526;2022-09-03T18:56:49;2.85;;;1.88;;
73900;SDS011;62235;52.160;7.526;2022-09-03T19:03:06;3.75;;;2.17;;
73900;SDS011;62235;52.160;7.526;2022-09-03T19:09:08;4.88;;;2.10;;
73900;SDS011;62235;52.160;7.526;2022-09-03T19:12:08;5.65;;;2.03;;
73900;SDS011;62235;52.160;7.526;2022-09-03T19:15:08;4.03;;;1.70;;
73900;SDS011;62235;52.160;7.526;2022-09-03T19:20:55;3.40;;;1.80;;
73900;SDS011;62235;52.160;7.526;2022-09-03T19:23:43;2.30;;;1.60;;
73900;SDS011;62235;52.160;7.526;2022-09-03T19:26:39;5.13;;;1.60;;
73900;SDS011;62235;52.160;7.526;2022-09-03T19:29:35;1.73;;;1.40;;
73900;SDS011;62235;52.160;7.526;2022-09-03T19:32:32;4.55;;;1.52;;
73900;SDS011;62235;52.160;7.526;2022-09-03T19:35:28;1.77;;;1.20;;
73900;SDS011;62235;52.160;7.526;2022-09-03T19:38:22;3.67;;;1.40;;
73900;SDS011;62235;52.160;7.526;2022-09-03T19:41:19;2.63;;;1.50;;
73900;SDS011;62235;52.160;7.526;2022-09-03T19:44:15;5.18;;;1.42;;
73900;SDS011;62235;52.160;7.526;2022-09-03T19:47:19;3.38;;;1.80;;
73900;SDS011;62235;52.160;7.526;2022-09-03T19:50:21;8.55;;;3.20;;